createdAt,value
2022-10-29T00:00:42.643Z,92.90
2022-10-29T00:01:42.713Z,93.00
2022-10-29T00:02:42.685Z,92.80
2022-10-29T00:03:42.614Z,92.09
2022-10-29T00:04:42.611Z,92.49
2022-10-29T00:05:42.587Z,92.74
2022-10-29T00:06:42.618Z,92.40
2022-10-29T00:07:42.554Z,92.40
2022-10-29T00:08:42.555Z,92.40
2022-10-29T00:09:42.569Z,92.49
2022-10-29T00:10:42.526Z,92.40
2022-10-29T00:11:42.516Z,92.40
2022-10-29T00:12:42.516Z,92.24
2022-10-29T00:13:42.489Z,92.24
2022-10-29T00:14:42.488Z,92.19
2022-10-29T00:15:42.472Z,92.40
2022-10-29T00:16:42.472Z,92.69
2022-10-29T00:17:42.449Z,92.60
2022-10-29T00:18:42.441Z,92.74
2022-10-29T00:19:42.421Z,92.49
2022-10-29T00:20:42.413Z,92.64
2022-10-29T00:21:42.412Z,92.24
2022-10-29T00:22:42.389Z,93.15
2022-10-29T00:23:42.383Z,92.84
2022-10-29T00:24:42.364Z,92.33
2022-10-29T00:25:42.356Z,92.84
2022-10-29T00:26:42.370Z,92.94
2022-10-29T00:27:42.332Z,93.04
2022-10-29T00:28:42.347Z,93.04
2022-10-29T00:29:42.314Z,92.84
2022-10-29T00:30:42.296Z,92.64
2022-10-29T00:31:42.391Z,93.24
2022-10-29T00:32:42.281Z,92.74
2022-10-29T00:33:42.279Z,93.15
2022-10-29T00:34:42.249Z,93.15
2022-10-29T00:35:42.250Z,93.04
2022-10-29T00:36:49.809Z,93.24
2022-10-29T00:37:42.246Z,93.35
2022-10-29T00:38:42.201Z,93.85
2022-10-29T00:39:42.204Z,93.55
2022-10-29T00:40:42.182Z,93.44
2022-10-29T00:41:42.184Z,93.44
2022-10-29T00:42:42.161Z,93.85
2022-10-29T00:43:42.173Z,93.95
2022-10-29T00:44:42.155Z,94.15
2022-10-29T00:45:42.128Z,94.15
2022-10-29T00:46:42.135Z,94.06
2022-10-29T00:47:42.116Z,93.85
2022-10-29T00:48:42.092Z,93.40
2022-10-29T00:49:42.091Z,93.35
2022-10-29T00:50:42.069Z,93.55
2022-10-29T00:51:42.061Z,93.44
2022-10-29T00:52:42.049Z,93.35
2022-10-29T00:53:42.041Z,93.24
2022-10-29T00:54:42.044Z,93.19
2022-10-29T00:55:42.014Z,94.06
2022-10-29T00:56:42.000Z,93.44
2022-10-29T00:57:41.988Z,93.15
2022-10-29T00:58:41.981Z,93.04
2022-10-29T00:59:42.007Z,93.19
2022-10-29T01:00:41.972Z,93.04
2022-10-29T01:01:42.112Z,92.99
2022-10-29T01:02:42.063Z,93.08
2022-10-29T01:03:41.922Z,93.08
2022-10-29T01:04:41.927Z,92.88
2022-10-29T01:05:41.904Z,92.58
2022-10-29T01:06:41.894Z,93.19
2022-10-29T01:07:41.876Z,92.99
2022-10-29T01:08:41.870Z,92.88
2022-10-29T01:09:41.853Z,93.13
2022-10-29T01:10:41.853Z,92.68
2022-10-29T01:11:41.836Z,92.93
2022-10-29T01:12:41.818Z,93.03
2022-10-29T01:13:41.813Z,93.13
2022-10-29T01:14:41.796Z,93.33
2022-10-29T01:15:41.798Z,93.13
2022-10-29T01:16:41.824Z,92.93
2022-10-29T01:17:41.774Z,93.13
2022-10-29T01:18:41.800Z,92.93
2022-10-29T01:19:41.744Z,93.74
2022-10-29T01:20:41.753Z,93.43
2022-10-29T01:21:41.722Z,93.54
2022-10-29T01:22:41.706Z,93.63
2022-10-29T01:23:41.700Z,94.24
2022-10-29T01:24:41.680Z,94.55
2022-10-29T01:25:41.688Z,94.24
2022-10-29T01:26:41.685Z,94.14
2022-10-29T01:27:41.663Z,94.04
2022-10-29T01:28:41.660Z,94.35
2022-10-29T01:29:41.633Z,94.35
2022-10-29T01:30:41.617Z,94.04
2022-10-29T01:31:41.610Z,94.04
2022-10-29T01:32:41.621Z,94.24
2022-10-29T01:33:41.584Z,94.14
2022-10-29T01:34:41.571Z,94.04
2022-10-29T01:35:41.562Z,94.65
2022-10-29T01:36:41.554Z,94.04
2022-10-29T01:37:41.558Z,94.35
2022-10-29T01:38:41.538Z,94.14
2022-10-29T01:39:41.526Z,94.65
2022-10-29T01:40:41.503Z,93.94
2022-10-29T01:41:41.509Z,94.19
2022-10-29T01:42:41.486Z,94.19
2022-10-29T01:43:41.497Z,94.29
2022-10-29T01:44:41.470Z,94.09
2022-10-29T01:45:41.465Z,93.58
2022-10-29T01:46:41.447Z,93.27
2022-10-29T01:47:41.430Z,93.27
2022-10-29T01:48:41.443Z,93.18
2022-10-29T01:49:41.413Z,93.32
2022-10-29T01:50:41.394Z,93.78
2022-10-29T01:51:41.389Z,93.27
2022-10-29T01:52:41.368Z,93.27
2022-10-29T01:53:41.358Z,93.99
2022-10-29T01:54:41.347Z,93.18
2022-10-29T01:55:41.340Z,93.78
2022-10-29T01:56:41.335Z,94.34
2022-10-29T01:57:41.357Z,94.43
2022-10-29T01:58:41.303Z,93.12
2022-10-29T01:59:51.508Z,93.83
2022-10-29T02:00:42.323Z,93.42
2022-10-29T02:01:41.338Z,93.12
2022-10-29T02:02:45.750Z,93.22
2022-10-29T02:03:42.247Z,93.32
2022-10-29T02:04:41.271Z,93.12
2022-10-29T02:05:41.233Z,93.77
2022-10-29T02:06:41.221Z,94.03
2022-10-29T02:07:41.217Z,93.77
2022-10-29T02:08:41.203Z,93.02
2022-10-29T02:09:41.182Z,93.57
2022-10-29T02:10:41.174Z,93.67
2022-10-29T02:11:41.155Z,93.32
2022-10-29T02:12:41.158Z,93.37
2022-10-29T02:13:41.139Z,93.87
2022-10-29T02:14:41.121Z,93.67
2022-10-29T02:15:41.116Z,93.83
2022-10-29T02:16:41.117Z,93.37
2022-10-29T02:17:41.101Z,94.07
2022-10-29T02:18:41.077Z,94.07
2022-10-29T02:19:41.085Z,93.16
2022-10-29T02:20:41.085Z,94.07
2022-10-29T02:21:41.054Z,93.87
2022-10-29T02:22:41.031Z,93.57
2022-10-29T02:23:41.023Z,93.67
2022-10-29T02:24:41.018Z,93.21
2022-10-29T02:25:41.175Z,93.91
2022-10-29T02:26:40.993Z,93.77
2022-10-29T02:27:40.985Z,93.71
2022-10-29T02:28:40.965Z,93.37
2022-10-29T02:29:40.960Z,93.51
2022-10-29T02:30:40.951Z,93.41
2022-10-29T02:31:40.949Z,93.71
2022-10-29T02:32:40.940Z,93.61
2022-10-29T02:33:40.917Z,93.81
2022-10-29T02:34:40.905Z,93.81
2022-10-29T02:35:40.939Z,93.61
2022-10-29T02:36:40.910Z,93.21
2022-10-29T02:37:40.886Z,93.41
2022-10-29T02:38:40.868Z,93.30
2022-10-29T02:39:40.844Z,93.51
2022-10-29T02:40:40.830Z,93.61
2022-10-29T02:41:40.826Z,93.71
2022-10-29T02:42:40.835Z,93.25
2022-10-29T02:43:40.807Z,93.96
2022-10-29T02:44:40.794Z,93.76
2022-10-29T02:45:40.778Z,93.25
2022-10-29T02:46:40.771Z,93.45
2022-10-29T02:47:40.786Z,93.35
2022-10-29T02:48:40.741Z,93.25
2022-10-29T02:49:40.730Z,93.76
2022-10-29T02:50:40.744Z,94.37
2022-10-29T02:51:40.712Z,93.86
2022-10-29T02:52:40.730Z,93.35
2022-10-29T02:53:40.687Z,93.65
2022-10-29T02:54:40.674Z,93.65
2022-10-29T02:55:40.687Z,93.35
2022-10-29T02:56:40.670Z,93.45
2022-10-29T02:57:40.649Z,93.35
2022-10-29T02:58:40.655Z,93.15
2022-10-29T02:59:40.626Z,93.65
2022-10-29T03:00:40.606Z,93.96
2022-10-29T03:01:40.757Z,94.17
2022-10-29T03:02:40.667Z,94.06
2022-10-29T03:03:40.581Z,93.45
2022-10-29T03:04:40.595Z,93.29
2022-10-29T03:05:43.006Z,93.65
2022-10-29T03:06:40.549Z,94.00
2022-10-29T03:07:40.527Z,94.46
2022-10-29T03:08:40.542Z,93.86
2022-10-29T03:09:40.513Z,93.55
2022-10-29T03:10:40.501Z,93.86
2022-10-29T03:11:40.481Z,94.06
2022-10-29T03:12:40.465Z,93.65
2022-10-29T03:13:40.485Z,94.17
2022-10-29T03:14:40.462Z,93.76
2022-10-29T03:15:40.450Z,94.17
2022-10-29T03:16:40.426Z,94.17
2022-10-29T03:17:40.423Z,94.37
2022-10-29T03:18:40.403Z,94.17
2022-10-29T03:19:40.395Z,94.17
2022-10-29T03:20:40.393Z,94.17
2022-10-29T03:21:40.377Z,93.96
2022-10-29T03:22:40.358Z,94.06
2022-10-29T03:23:40.356Z,93.76
2022-10-29T03:24:40.351Z,93.70
2022-10-29T03:25:40.340Z,94.10
2022-10-29T03:26:40.316Z,93.90
2022-10-29T03:27:40.316Z,94.00
2022-10-29T03:28:40.369Z,93.90
2022-10-29T03:29:40.293Z,93.80
2022-10-29T03:30:40.263Z,94.00
2022-10-29T03:31:40.278Z,93.49
2022-10-29T03:32:40.245Z,93.80
2022-10-29T03:33:40.241Z,93.29
2022-10-29T03:34:40.233Z,93.90
2022-10-29T03:35:40.291Z,93.80
2022-10-29T03:36:40.201Z,93.80
2022-10-29T03:37:40.194Z,93.80
2022-10-29T03:38:40.198Z,93.70
2022-10-29T03:39:40.170Z,93.95
2022-10-29T03:40:40.180Z,94.05
2022-10-29T03:41:40.150Z,93.60
2022-10-29T03:42:40.134Z,93.84
2022-10-29T03:43:40.125Z,93.70
2022-10-29T03:44:40.120Z,94.51
2022-10-29T03:45:40.144Z,93.80
2022-10-29T03:46:40.099Z,93.44
2022-10-29T03:47:40.085Z,93.64
2022-10-29T03:48:40.064Z,93.84
2022-10-29T03:49:40.049Z,93.84
2022-10-29T03:50:40.050Z,93.90
2022-10-29T03:51:40.043Z,93.84
2022-10-29T03:52:40.032Z,94.25
2022-10-29T03:53:40.031Z,94.66
2022-10-29T03:54:40.003Z,94.66
2022-10-29T03:55:40.006Z,94.66
2022-10-29T03:56:39.996Z,94.45
2022-10-29T03:57:39.967Z,94.41
2022-10-29T03:58:39.973Z,94.66
2022-10-29T03:59:39.936Z,94.45
2022-10-29T04:00:39.936Z,94.15
2022-10-29T04:01:40.071Z,94.10
2022-10-29T04:02:40.087Z,94.76
2022-10-29T04:03:39.897Z,94.66
2022-10-29T04:04:39.894Z,94.35
2022-10-29T04:05:39.876Z,94.45
2022-10-29T04:06:39.868Z,94.45
2022-10-29T04:07:39.871Z,94.45
2022-10-29T04:08:39.850Z,94.66
2022-10-29T04:09:39.829Z,94.20
2022-10-29T04:10:39.818Z,95.10
2022-10-29T04:11:39.804Z,94.35
2022-10-29T04:12:39.815Z,94.45
2022-10-29T04:13:39.796Z,94.35
2022-10-29T04:14:44.535Z,94.29
2022-10-29T04:15:40.773Z,93.79
2022-10-29T04:16:39.755Z,94.09
2022-10-29T04:17:39.742Z,94.70
2022-10-29T04:18:39.737Z,93.68
2022-10-29T04:19:39.734Z,93.99
2022-10-29T04:20:59.718Z,93.79
2022-10-29T04:26:34.579Z,94.09
2022-10-29T04:28:43.267Z,94.50
2022-10-29T04:29:39.601Z,94.60
2022-10-29T04:30:39.607Z,95.01
2022-10-29T04:31:39.582Z,95.01
2022-10-29T04:32:39.580Z,94.70
2022-10-29T04:33:39.564Z,94.90
2022-10-29T04:34:39.576Z,94.60
2022-10-29T04:35:39.673Z,94.09
2022-10-29T04:36:39.522Z,94.40
2022-10-29T04:37:39.516Z,94.34
2022-10-29T04:38:39.518Z,94.54
2022-10-29T04:39:39.510Z,94.74
2022-10-29T04:40:39.489Z,94.29
2022-10-29T04:41:39.469Z,93.93
2022-10-29T04:42:39.468Z,93.93
2022-10-29T04:43:39.442Z,93.68
2022-10-29T04:44:39.466Z,93.93
2022-10-29T04:45:39.452Z,94.04
2022-10-29T04:46:39.410Z,93.83
2022-10-29T04:47:39.398Z,93.93
2022-10-29T04:48:39.475Z,93.83
2022-10-29T04:49:39.378Z,93.83
2022-10-29T04:50:39.376Z,94.04
2022-10-29T04:51:39.376Z,93.93
2022-10-29T04:52:39.366Z,94.04
2022-10-29T04:53:39.359Z,93.93
2022-10-29T04:54:39.321Z,93.83
2022-10-29T04:55:39.315Z,94.44
2022-10-29T04:56:39.299Z,93.83
2022-10-29T04:57:39.284Z,93.93
2022-10-29T04:58:39.314Z,94.54
2022-10-29T04:59:39.263Z,94.34
2022-10-29T05:00:39.359Z,94.13
2022-10-29T05:01:39.246Z,93.83
2022-10-29T05:02:39.238Z,93.93
2022-10-29T05:03:39.216Z,93.93
2022-10-29T05:04:39.206Z,94.64
2022-10-29T05:05:39.198Z,94.13
2022-10-29T05:06:39.351Z,93.83
2022-10-29T05:07:39.180Z,93.83
2022-10-29T05:08:39.166Z,93.93
2022-10-29T05:09:39.165Z,93.87
2022-10-29T05:10:39.162Z,94.18
2022-10-29T05:11:39.126Z,93.67
2022-10-29T05:12:39.118Z,93.93
2022-10-29T05:13:39.106Z,93.83
2022-10-29T05:14:39.099Z,93.98
2022-10-29T05:15:39.082Z,94.08
2022-10-29T05:16:39.102Z,93.93
2022-10-29T05:17:39.060Z,93.98
2022-10-29T05:18:39.051Z,93.93
2022-10-29T05:19:39.032Z,93.87
2022-10-29T05:20:39.033Z,93.98
2022-10-29T05:21:39.045Z,93.87
2022-10-29T05:22:39.006Z,94.18
2022-10-29T05:23:39.024Z,94.59
2022-10-29T05:24:38.975Z,94.48
2022-10-29T05:25:38.964Z,95.00
2022-10-29T05:26:38.958Z,95.09
2022-10-29T05:27:38.949Z,94.59
2022-10-29T05:28:38.937Z,95.00
2022-10-29T05:29:38.925Z,94.89
2022-10-29T05:30:38.915Z,95.00
2022-10-29T05:31:38.923Z,95.00
2022-10-29T05:32:38.916Z,94.54
2022-10-29T05:33:38.882Z,94.79
2022-10-29T05:34:42.018Z,94.74
2022-10-29T05:35:38.850Z,95.25
2022-10-29T05:36:38.858Z,94.95
2022-10-29T05:37:38.828Z,95.56
2022-10-29T05:38:38.819Z,95.46
2022-10-29T05:39:38.821Z,95.09
2022-10-29T05:40:38.801Z,95.20
2022-10-29T05:41:38.789Z,95.05
2022-10-29T05:42:41.437Z,95.09
2022-10-29T05:43:38.787Z,95.20
2022-10-29T05:44:38.764Z,95.30
2022-10-29T05:45:38.738Z,95.50
2022-10-29T05:46:38.731Z,95.40
2022-10-29T05:47:38.716Z,95.40
2022-10-29T05:48:38.740Z,95.40
2022-10-29T05:49:38.704Z,95.40
2022-10-29T05:50:38.685Z,95.61
2022-10-29T05:51:38.673Z,95.61
2022-10-29T05:52:38.669Z,95.50
2022-10-29T05:53:38.659Z,95.50
2022-10-29T05:54:38.641Z,95.20
2022-10-29T05:55:38.626Z,95.61
2022-10-29T05:56:38.622Z,95.25
2022-10-29T05:57:38.603Z,95.30
2022-10-29T05:58:38.607Z,95.70
2022-10-29T05:59:38.582Z,95.50
2022-10-29T06:00:38.597Z,95.70
2022-10-29T06:01:38.714Z,96.01
2022-10-29T06:02:38.651Z,95.81
2022-10-29T06:03:38.621Z,95.91
2022-10-29T06:04:38.575Z,96.62
2022-10-29T06:05:38.526Z,96.52
2022-10-29T06:06:38.580Z,96.52
2022-10-29T06:07:38.495Z,96.22
2022-10-29T06:08:38.486Z,96.42
2022-10-29T06:09:38.468Z,95.91
2022-10-29T06:10:38.482Z,96.31
2022-10-29T06:11:38.443Z,96.22
2022-10-29T06:12:38.444Z,96.01
2022-10-29T06:13:38.423Z,96.62
2022-10-29T06:14:38.421Z,96.31
2022-10-29T06:15:38.401Z,96.31
2022-10-29T06:16:38.390Z,96.42
2022-10-29T06:17:38.409Z,96.42
2022-10-29T06:18:38.383Z,96.62
2022-10-29T06:20:38.362Z,96.52
2022-10-29T06:21:38.335Z,96.42
2022-10-29T06:22:38.329Z,96.42
2022-10-29T06:23:38.317Z,96.52
2022-10-29T06:24:38.299Z,96.11
2022-10-29T06:25:38.285Z,96.27
2022-10-29T06:26:38.289Z,96.31
2022-10-29T06:27:38.287Z,96.42
2022-10-29T06:28:38.256Z,96.31
2022-10-29T06:29:38.268Z,96.62
2022-10-29T06:30:38.252Z,96.11
2022-10-29T06:31:38.236Z,96.01
2022-10-29T06:32:38.218Z,96.52
2022-10-29T06:33:38.195Z,96.52
2022-10-29T06:34:38.200Z,96.72
2022-10-29T06:35:38.200Z,96.31
2022-10-29T06:36:45.275Z,96.31
2022-10-29T06:37:38.147Z,96.62
2022-10-29T06:38:38.136Z,96.56
2022-10-29T06:39:38.143Z,96.31
2022-10-29T06:40:38.118Z,96.52
2022-10-29T06:41:38.141Z,96.42
2022-10-29T06:42:38.095Z,96.36
2022-10-29T06:43:38.080Z,97.07
2022-10-29T06:44:38.070Z,96.36
2022-10-29T06:45:38.074Z,96.67
2022-10-29T06:46:38.054Z,96.72
2022-10-29T06:47:38.044Z,97.38
2022-10-29T06:48:38.033Z,97.07
2022-10-29T06:49:38.013Z,96.52
2022-10-29T06:50:38.005Z,96.97
2022-10-29T06:51:38.002Z,96.77
2022-10-29T06:52:38.018Z,97.69
2022-10-29T06:53:37.965Z,97.53
2022-10-29T06:54:37.957Z,97.89
2022-10-29T06:55:37.941Z,98.39
2022-10-29T06:56:37.935Z,98.14
2022-10-29T06:57:37.929Z,98.25
2022-10-29T06:58:37.946Z,97.74
2022-10-29T06:59:37.937Z,98.05
2022-10-29T07:00:38.092Z,98.25
2022-10-29T07:01:37.908Z,98.14
2022-10-29T07:02:37.867Z,98.05
2022-10-29T07:03:37.879Z,98.35
2022-10-29T07:04:37.846Z,98.05
2022-10-29T07:05:37.828Z,97.60
2022-10-29T07:06:37.846Z,98.14
2022-10-29T07:07:37.806Z,97.60
2022-10-29T07:08:37.822Z,97.74
2022-10-29T07:09:37.803Z,97.53
2022-10-29T07:10:37.776Z,97.64
2022-10-29T07:11:37.768Z,97.64
2022-10-29T07:12:37.767Z,97.60
2022-10-29T07:13:37.751Z,96.78
2022-10-29T07:14:37.758Z,96.78
2022-10-29T07:15:37.713Z,96.68
2022-10-29T07:16:37.714Z,96.27
2022-10-29T07:17:37.695Z,96.27
2022-10-29T07:18:37.703Z,96.68
2022-10-29T07:19:37.671Z,97.08
2022-10-29T07:20:37.697Z,96.68
2022-10-29T07:21:37.647Z,96.63
2022-10-29T07:22:37.642Z,96.94
2022-10-29T07:23:37.636Z,97.04
2022-10-29T07:24:37.642Z,96.53
2022-10-29T07:25:37.632Z,96.94
2022-10-29T07:26:37.596Z,97.14
2022-10-29T07:27:37.702Z,97.04
2022-10-29T07:28:37.570Z,96.48
2022-10-29T07:29:37.580Z,96.53
2022-10-29T07:30:37.554Z,96.43
2022-10-29T07:31:37.548Z,96.38
2022-10-29T07:32:37.528Z,96.38
2022-10-29T07:33:37.511Z,96.69
2022-10-29T07:34:37.504Z,96.59
2022-10-29T07:35:37.511Z,96.59
2022-10-29T07:36:37.498Z,96.79
2022-10-29T07:37:37.477Z,96.79
2022-10-29T07:38:37.461Z,96.64
2022-10-29T07:39:37.455Z,96.64
2022-10-29T07:40:37.455Z,96.34
2022-10-29T07:41:37.439Z,96.64
2022-10-29T07:42:37.431Z,96.34
2022-10-29T07:43:37.399Z,96.34
2022-10-29T07:44:37.390Z,96.84
2022-10-29T07:45:37.377Z,96.34
2022-10-29T07:46:37.385Z,96.95
2022-10-29T07:47:37.364Z,97.15
2022-10-29T07:48:37.357Z,96.64
2022-10-29T07:49:37.336Z,97.76
2022-10-29T07:50:37.317Z,97.96
2022-10-29T07:51:37.327Z,97.66
2022-10-29T07:52:37.295Z,97.25
2022-10-29T07:53:37.298Z,97.51
2022-10-29T07:54:37.283Z,97.92
2022-10-29T07:55:37.267Z,97.11
2022-10-29T07:56:37.272Z,97.20
2022-10-29T07:57:37.272Z,97.71
2022-10-29T07:58:37.237Z,98.12
2022-10-29T07:59:37.223Z,98.22
2022-10-29T08:00:37.231Z,97.77
2022-10-29T08:01:37.340Z,98.18
2022-10-29T08:02:37.193Z,98.28
2022-10-29T08:03:37.202Z,98.68
2022-10-29T08:04:37.165Z,98.38
2022-10-29T08:05:37.180Z,98.28
2022-10-29T08:06:37.139Z,98.74
2022-10-29T08:07:37.141Z,98.94
2022-10-29T08:08:37.137Z,98.43
2022-10-29T08:09:37.132Z,98.54
2022-10-29T08:10:37.101Z,99.04
2022-10-29T08:11:37.149Z,99.24
2022-10-29T08:12:37.098Z,98.99
2022-10-29T08:13:37.079Z,99.30
2022-10-29T08:14:37.071Z,99.60
2022-10-29T08:15:37.041Z,99.40
2022-10-29T08:16:37.030Z,99.40
2022-10-29T08:17:37.019Z,99.19
2022-10-29T08:18:37.011Z,99.05
2022-10-29T08:19:37.009Z,99.60
2022-10-29T08:20:36.993Z,99.19
2022-10-29T08:21:36.978Z,98.99
2022-10-29T08:22:36.964Z,98.44
2022-10-29T08:23:36.952Z,98.44
2022-10-29T08:24:36.952Z,98.44
2022-10-29T08:25:36.930Z,98.54
2022-10-29T08:26:36.919Z,98.60
2022-10-29T08:27:36.919Z,98.70
2022-10-29T08:28:36.914Z,98.90
2022-10-29T08:29:36.883Z,98.60
2022-10-29T08:30:36.888Z,98.29
2022-10-29T08:31:36.884Z,98.25
2022-10-29T08:32:36.848Z,98.45
2022-10-29T08:33:36.843Z,98.14
2022-10-29T08:34:36.850Z,97.94
2022-10-29T08:35:36.819Z,98.14
2022-10-29T08:36:36.817Z,97.94
2022-10-29T08:37:36.792Z,97.44
2022-10-29T08:38:36.783Z,97.90
2022-10-29T08:39:36.778Z,97.29
2022-10-29T08:40:36.783Z,97.60
2022-10-29T08:41:36.762Z,97.75
2022-10-29T08:42:36.732Z,96.84
2022-10-29T08:43:36.738Z,97.00
2022-10-29T08:44:36.738Z,96.19
2022-10-29T08:45:36.726Z,96.29
2022-10-29T08:46:36.690Z,95.23
2022-10-29T08:47:36.707Z,95.94
2022-10-29T08:48:36.667Z,94.53
2022-10-29T08:49:36.666Z,94.38
2022-10-29T08:50:36.653Z,94.28
2022-10-29T08:51:36.650Z,93.63
2022-10-29T08:52:36.620Z,92.93
2022-10-29T08:53:36.624Z,92.82
2022-10-29T08:54:36.597Z,92.82
2022-10-29T08:55:36.590Z,92.62
2022-10-29T08:56:36.601Z,92.62
2022-10-29T08:57:36.571Z,92.32
2022-10-29T08:58:36.561Z,91.71
2022-10-29T08:59:36.556Z,91.91
2022-10-29T09:00:36.584Z,92.12
2022-10-29T09:01:36.653Z,92.32
2022-10-29T09:02:36.509Z,92.22
2022-10-29T09:03:36.519Z,92.22
2022-10-29T09:04:36.485Z,92.02
2022-10-29T09:05:36.476Z,92.22
2022-10-29T09:06:36.470Z,91.91
2022-10-29T09:07:36.456Z,91.91
2022-10-29T09:08:36.463Z,92.32
2022-10-29T09:09:36.435Z,92.22
2022-10-29T09:10:36.419Z,92.02
2022-10-29T09:11:36.412Z,92.02
2022-10-29T09:12:36.394Z,92.32
2022-10-29T09:13:36.389Z,92.62
2022-10-29T09:14:36.399Z,92.27
2022-10-29T09:15:36.365Z,92.07
2022-10-29T09:16:36.445Z,92.33
2022-10-29T09:17:36.339Z,91.33
2022-10-29T09:18:36.328Z,91.22
2022-10-29T09:19:36.316Z,91.22
2022-10-29T09:20:36.347Z,91.13
2022-10-29T09:21:36.310Z,90.11
2022-10-29T09:22:36.280Z,90.22
2022-10-29T09:23:36.273Z,90.68
2022-10-29T09:24:36.261Z,89.87
2022-10-29T09:25:36.257Z,89.67
2022-10-29T09:26:36.237Z,88.92
2022-10-29T09:27:36.234Z,89.12
2022-10-29T09:28:36.223Z,88.92
2022-10-29T09:29:36.208Z,89.03
2022-10-29T09:30:36.188Z,88.82
2022-10-29T09:31:36.181Z,87.87
2022-10-29T09:32:36.197Z,87.77
2022-10-29T09:33:36.167Z,87.67
2022-10-29T09:34:36.143Z,87.37
2022-10-29T09:35:36.139Z,87.27
2022-10-29T09:36:36.139Z,87.02
2022-10-29T09:37:36.124Z,87.23
2022-10-29T09:38:36.098Z,87.19
2022-10-29T09:39:36.090Z,86.99
2022-10-29T09:40:36.092Z,86.28
2022-10-29T09:41:36.079Z,86.88
2022-10-29T09:42:36.068Z,86.68
2022-10-29T09:43:36.043Z,86.28
2022-10-29T09:44:36.027Z,85.78
2022-10-29T09:45:36.021Z,85.38
2022-10-29T09:46:36.026Z,85.28
2022-10-29T09:47:36.006Z,85.28
2022-10-29T09:48:36.002Z,85.38
2022-10-29T09:49:36.000Z,85.33
2022-10-29T09:50:35.960Z,85.24
2022-10-29T09:51:35.953Z,84.83
2022-10-29T09:52:35.967Z,84.74
2022-10-29T09:53:35.941Z,84.83
2022-10-29T09:54:35.919Z,84.53
2022-10-29T09:55:35.907Z,84.83
2022-10-29T09:56:35.894Z,84.09
2022-10-29T09:57:35.895Z,83.83
2022-10-29T09:58:35.873Z,83.79
2022-10-29T09:59:35.865Z,84.39
2022-10-29T10:00:35.860Z,84.49
2022-10-29T10:01:35.931Z,83.99
2022-10-29T10:02:35.912Z,83.59
2022-10-29T10:03:35.822Z,83.99
2022-10-29T10:04:35.825Z,84.39
2022-10-29T10:05:35.799Z,83.79
2022-10-29T10:06:39.018Z,83.59
2022-10-29T10:07:36.802Z,83.39
2022-10-29T10:08:35.785Z,83.45
2022-10-29T10:09:35.750Z,83.45
2022-10-29T10:10:35.758Z,83.35
2022-10-29T10:11:35.728Z,83.15
2022-10-29T10:12:35.716Z,83.04
2022-10-29T10:13:35.722Z,81.80
2022-10-29T10:14:35.707Z,81.84
2022-10-29T10:15:35.695Z,81.84
2022-10-29T10:16:35.669Z,81.74
2022-10-29T10:17:35.660Z,82.04
2022-10-29T10:18:35.696Z,82.45
2022-10-29T10:19:35.656Z,81.34
2022-10-29T10:20:35.669Z,82.04
2022-10-29T10:21:35.612Z,81.94
2022-10-29T10:22:35.601Z,81.74
2022-10-29T10:23:35.599Z,81.80
2022-10-29T10:24:35.577Z,81.40
2022-10-29T10:25:35.648Z,80.94
2022-10-29T10:26:35.553Z,81.44
2022-10-29T10:27:35.569Z,82.04
2022-10-29T10:28:35.545Z,81.64
2022-10-29T10:29:35.529Z,81.34
2022-10-29T10:30:35.509Z,81.74
2022-10-29T10:31:35.510Z,81.70
2022-10-29T10:32:35.487Z,81.40
2022-10-29T10:33:35.517Z,81.16
2022-10-29T10:34:35.468Z,80.46
2022-10-29T10:35:35.457Z,80.46
2022-10-29T10:36:35.467Z,80.56
2022-10-29T10:37:35.437Z,81.23
2022-10-29T10:38:35.419Z,79.55
2022-10-29T10:39:35.438Z,79.75
2022-10-29T10:40:35.407Z,79.96
2022-10-29T10:41:35.389Z,79.60
2022-10-29T10:42:35.384Z,80.30
2022-10-29T10:43:35.369Z,80.90
2022-10-29T10:44:35.364Z,81.30
2022-10-29T10:45:35.354Z,81.00
2022-10-29T10:46:35.343Z,81.40
2022-10-29T10:47:35.325Z,80.40
2022-10-29T10:49:35.323Z,80.90
2022-10-29T10:50:35.359Z,81.54
2022-10-29T10:51:35.278Z,81.50
2022-10-29T10:52:35.298Z,81.24
2022-10-29T10:53:35.268Z,81.44
2022-10-29T10:54:35.334Z,81.90
2022-10-29T10:55:35.240Z,81.84
2022-10-29T10:56:35.238Z,81.84
2022-10-29T10:57:35.212Z,81.54
2022-10-29T10:58:35.210Z,81.84
2022-10-29T10:59:35.187Z,82.00
2022-10-29T11:00:35.317Z,82.64
2022-10-29T11:01:35.289Z,82.75
2022-10-29T11:02:35.292Z,82.45
2022-10-29T11:03:35.166Z,81.84
2022-10-29T11:04:35.128Z,81.74
2022-10-29T11:05:35.129Z,81.84
2022-10-29T11:06:35.121Z,82.84
2022-10-29T11:07:35.103Z,82.64
2022-10-29T11:08:35.104Z,82.51
2022-10-29T11:09:35.103Z,81.60
2022-10-29T11:10:35.073Z,81.90
2022-10-29T11:11:35.069Z,81.70
2022-10-29T11:12:35.050Z,82.31
2022-10-29T11:13:35.044Z,81.70
2022-10-29T11:14:35.019Z,82.10
2022-10-29T11:15:35.022Z,81.50
2022-10-29T11:16:35.003Z,82.10
2022-10-29T11:17:34.991Z,82.51
2022-10-29T11:18:34.997Z,81.90
2022-10-29T11:19:36.784Z,82.00
2022-10-29T11:20:34.958Z,82.60
2022-10-29T11:21:34.948Z,82.00
2022-10-29T11:22:34.932Z,81.60
2022-10-29T11:23:34.919Z,82.40
2022-10-29T11:24:34.932Z,82.90
2022-10-29T11:25:34.908Z,81.70
2022-10-29T11:26:34.896Z,82.20
2022-10-29T11:27:34.900Z,82.67
2022-10-29T11:28:34.864Z,82.81
2022-10-29T11:29:34.851Z,82.90
2022-10-29T11:30:34.835Z,82.70
2022-10-29T11:31:34.859Z,82.90
2022-10-29T11:32:34.821Z,82.60
2022-10-29T11:33:34.834Z,82.81
2022-10-29T11:34:34.791Z,82.40
2022-10-29T11:35:34.790Z,81.70
2022-10-29T11:36:34.782Z,80.70
2022-10-29T11:37:34.774Z,80.60
2022-10-29T11:38:34.754Z,78.89
2022-10-29T11:39:34.741Z,79.90
2022-10-29T11:40:34.749Z,78.89
2022-10-29T11:41:34.719Z,79.16
2022-10-29T11:42:34.716Z,79.25
2022-10-29T11:43:34.710Z,78.61
2022-10-29T11:44:34.685Z,78.72
2022-10-29T11:45:34.669Z,78.02
2022-10-29T11:46:34.665Z,78.38
2022-10-29T11:47:34.661Z,77.58
2022-10-29T11:48:34.632Z,77.78
2022-10-29T11:49:34.620Z,76.94
2022-10-29T11:50:34.625Z,76.54
2022-10-29T11:51:34.614Z,76.20
2022-10-29T11:52:35.732Z,75.70
2022-10-29T11:53:34.609Z,75.56
2022-10-29T11:54:34.569Z,75.26
2022-10-29T11:55:34.558Z,74.26
2022-10-29T11:56:34.562Z,74.66
2022-10-29T11:57:34.548Z,75.06
2022-10-29T11:58:38.053Z,75.06
2022-10-29T11:59:35.514Z,75.43
2022-10-29T12:00:34.504Z,75.33
2022-10-29T12:01:34.569Z,75.29
2022-10-29T12:02:34.478Z,74.99
2022-10-29T12:03:34.572Z,75.09
2022-10-29T12:04:34.460Z,73.93
2022-10-29T12:05:34.477Z,74.73
2022-10-29T12:06:34.436Z,75.23
2022-10-29T12:07:34.422Z,73.93
2022-10-29T12:08:34.440Z,74.33
2022-10-29T12:09:34.400Z,74.13
2022-10-29T12:10:34.388Z,74.43
2022-10-29T12:11:37.850Z,73.63
2022-10-29T12:12:35.386Z,73.89
2022-10-29T12:13:34.379Z,72.49
2022-10-29T12:14:34.339Z,72.45
2022-10-29T12:15:34.335Z,72.96
2022-10-29T12:16:34.324Z,72.26
2022-10-29T12:17:34.458Z,72.26
2022-10-29T12:18:34.303Z,72.06
2022-10-29T12:19:34.308Z,72.45
2022-10-29T12:20:34.276Z,71.96
2022-10-29T12:21:34.293Z,71.96
2022-10-29T12:22:34.259Z,71.26
2022-10-29T12:23:34.239Z,71.83
2022-10-29T12:24:34.250Z,71.22
2022-10-29T12:25:34.229Z,71.66
2022-10-29T12:26:34.209Z,71.46
2022-10-29T12:27:34.200Z,72.32
2022-10-29T12:28:34.208Z,72.32
2022-10-29T12:29:34.181Z,72.22
2022-10-29T12:30:34.190Z,72.22
2022-10-29T12:31:34.149Z,71.76
2022-10-29T12:32:34.157Z,71.46
2022-10-29T12:33:34.132Z,72.56
2022-10-29T12:34:34.116Z,72.29
2022-10-29T12:35:34.106Z,72.56
2022-10-29T12:36:34.106Z,72.59
2022-10-29T12:37:41.678Z,71.66
2022-10-29T12:38:34.073Z,72.26
2022-10-29T12:39:34.061Z,72.29
2022-10-29T12:40:34.050Z,72.45
2022-10-29T12:41:34.094Z,72.09
2022-10-29T12:42:34.035Z,72.49
2022-10-29T12:43:34.014Z,72.69
2022-10-29T12:44:34.038Z,71.89
2022-10-29T12:45:36.946Z,72.69
2022-10-29T12:46:35.026Z,72.89
2022-10-29T12:47:33.993Z,72.39
2022-10-29T12:48:33.959Z,72.89
2022-10-29T12:49:33.953Z,72.39
2022-10-29T12:50:33.950Z,72.49
2022-10-29T12:51:33.929Z,72.69
2022-10-29T12:52:33.920Z,73.36
2022-10-29T12:53:33.898Z,74.09
2022-10-29T12:54:33.904Z,73.19
2022-10-29T12:55:33.886Z,73.09
2022-10-29T12:56:33.894Z,73.69
2022-10-29T12:57:33.868Z,73.25
2022-10-29T12:58:33.863Z,72.59
2022-10-29T12:59:33.855Z,72.89
2022-10-29T13:00:33.848Z,74.59